createdAt,value
2022-11-18T00:01:27.281Z,39309.75
2022-11-18T00:03:55.057Z,39285.84
2022-11-18T00:06:28.202Z,39265.91
2022-11-18T00:08:56.021Z,39293.81
2022-11-18T00:11:44.372Z,39339.66
2022-11-18T00:14:24.909Z,39291.81
2022-11-18T00:16:54.107Z,39257.91
2022-11-18T00:19:24.892Z,39305.78
2022-11-18T00:21:52.347Z,39273.88
2022-11-18T00:24:21.065Z,39237.97
2022-11-18T00:26:48.991Z,39218.03
2022-11-18T00:29:18.585Z,39216.03
2022-11-18T00:31:46.248Z,39212.06
2022-11-18T00:34:16.186Z,39204.09
2022-11-18T00:36:48.984Z,39176.16
2022-11-18T00:39:19.027Z,39168.19
2022-11-18T00:42:06.623Z,39186.13
2022-11-18T00:44:34.614Z,39176.16
2022-11-18T00:47:02.035Z,39160.22
2022-11-18T00:49:29.930Z,39132.31
2022-11-18T00:51:59.682Z,39154.25
2022-11-18T00:54:29.196Z,39142.28
2022-11-18T00:56:56.935Z,39156.22
2022-11-18T00:59:24.430Z,39158.22
2022-11-18T01:01:51.927Z,39124.31
2022-11-18T01:04:19.670Z,39142.28
2022-11-18T01:06:47.339Z,39168.19
2022-11-18T01:09:17.625Z,39128.31
2022-11-18T01:12:04.193Z,39134.31
2022-11-18T01:14:31.835Z,39124.31
2022-11-18T01:16:59.458Z,39116.34
2022-11-18T01:19:27.123Z,39096.41
2022-11-18T01:21:59.709Z,39176.16
2022-11-18T01:24:29.470Z,39126.31
2022-11-18T01:27:01.811Z,39176.16
2022-11-18T01:29:29.292Z,39174.19
2022-11-18T01:32:24.071Z,39192.13
2022-11-18T01:34:44.572Z,39178.16
2022-11-18T01:37:11.929Z,39190.13
2022-11-18T01:39:39.597Z,39156.22
2022-11-18T01:42:15.220Z,39130.31
2022-11-18T01:45:02.195Z,39176.16
2022-11-18T01:47:52.444Z,39160.22
2022-11-18T01:50:22.102Z,39118.34
2022-11-18T01:52:51.991Z,39176.16
2022-11-18T01:55:25.931Z,39156.22
2022-11-18T01:58:01.955Z,39116.34
2022-11-18T02:00:31.648Z,39140.28
2022-11-18T02:03:01.852Z,39138.28
2022-11-18T02:05:30.895Z,39140.28
2022-11-18T02:07:59.736Z,39140.28
2022-11-18T02:10:28.432Z,39118.34
2022-11-18T02:12:57.103Z,39110.38
2022-11-18T02:15:55.929Z,39096.41
2022-11-18T02:19:18.401Z,39132.31
2022-11-18T02:21:58.942Z,39114.38
2022-11-18T02:24:50.601Z,39104.38
2022-11-18T02:27:41.104Z,39070.50
2022-11-18T02:30:11.919Z,39096.41
2022-11-18T02:32:51.631Z,39064.50
2022-11-18T02:35:25.896Z,39044.56
2022-11-18T02:38:31.327Z,39068.50
2022-11-18T02:41:05.309Z,39066.50
2022-11-18T02:43:54.324Z,39054.53
2022-11-18T02:46:28.675Z,39068.50
2022-11-18T02:48:58.492Z,39068.50
2022-11-18T02:51:29.106Z,39068.50
2022-11-18T02:54:01.353Z,39106.38
2022-11-18T02:56:30.157Z,39144.28
2022-11-18T02:58:59.867Z,39134.31
2022-11-18T03:01:34.453Z,39124.31
2022-11-18T03:04:05.325Z,39116.34
2022-11-18T03:06:38.314Z,39088.44
2022-11-18T03:09:44.271Z,39162.22
2022-11-18T03:12:37.971Z,39100.41
2022-11-18T03:15:24.420Z,39108.38
2022-11-18T03:18:06.975Z,39142.28
2022-11-18T03:21:00.626Z,39154.25
2022-11-18T03:23:44.311Z,39124.31
2022-11-18T03:26:25.489Z,39124.31
2022-11-18T03:29:02.125Z,39072.50
2022-11-18T03:31:38.349Z,39124.31
2022-11-18T03:34:14.905Z,39116.34
2022-11-18T03:36:52.124Z,39112.38
2022-11-18T03:39:22.242Z,39124.31
2022-11-18T03:41:55.977Z,39132.31
2022-11-18T03:44:31.600Z,39080.47
2022-11-18T03:47:09.189Z,39239.97
2022-11-18T03:49:45.234Z,39371.56
2022-11-18T03:52:20.246Z,39391.50
2022-11-18T03:54:53.404Z,39387.53
2022-11-18T03:57:30.805Z,39431.38
2022-11-18T04:00:11.179Z,39395.50
2022-11-18T04:02:40.531Z,39403.47
2022-11-18T04:05:12.723Z,39423.41
2022-11-18T04:07:40.333Z,39509.16
2022-11-18T04:14:44.877Z,39535.09
2022-11-18T04:17:17.898Z,39604.88
2022-11-18T04:19:48.535Z,39543.06
2022-11-18T04:22:16.534Z,39559.00
2022-11-18T04:24:44.153Z,39570.97
2022-11-18T04:27:13.522Z,39567.00
2022-11-18T04:29:40.861Z,39551.03
2022-11-18T04:32:08.485Z,39531.09
2022-11-18T04:34:36.189Z,39513.16
2022-11-18T04:37:03.719Z,39533.09
2022-11-18T04:39:31.182Z,39519.13
2022-11-18T04:41:58.832Z,39493.22
2022-11-18T04:44:29.444Z,39467.28
2022-11-18T04:46:58.504Z,39517.13
2022-11-18T04:49:26.989Z,39491.22
2022-11-18T04:51:55.251Z,39517.13
2022-11-18T04:54:23.992Z,39499.19
2022-11-18T04:56:52.426Z,39521.13
2022-11-18T04:59:28.313Z,39511.16
2022-11-18T05:01:56.694Z,39499.19
2022-11-18T05:04:28.048Z,39527.09
2022-11-18T05:06:58.030Z,39515.13
2022-11-18T05:09:30.419Z,39519.13
2022-11-18T05:12:19.498Z,39531.09
2022-11-18T05:14:50.852Z,39652.72
2022-11-18T05:17:19.367Z,39626.81
2022-11-18T05:19:46.996Z,39670.69
2022-11-18T05:22:17.233Z,39646.75
2022-11-18T05:24:49.721Z,39670.69
2022-11-18T05:27:17.550Z,39636.78
2022-11-18T05:29:45.272Z,39632.78
2022-11-18T05:32:12.771Z,39624.81
2022-11-18T05:34:41.936Z,39602.88
2022-11-18T05:37:15.221Z,39602.88
2022-11-18T05:39:42.925Z,39602.88
2022-11-18T05:42:31.765Z,39654.72
2022-11-18T05:44:59.295Z,39658.72
2022-11-18T05:47:48.916Z,39646.75
2022-11-18T05:50:21.117Z,39646.75
2022-11-18T05:52:48.978Z,39686.63
2022-11-18T05:55:20.086Z,39658.72
2022-11-18T05:57:49.073Z,39686.63
2022-11-18T06:00:19.163Z,39712.56
2022-11-18T06:02:50.187Z,39732.50
2022-11-18T06:05:19.411Z,39718.53
2022-11-18T06:07:48.850Z,39662.69
2022-11-18T06:10:25.539Z,39690.63
2022-11-18T06:12:58.037Z,39704.59
2022-11-18T06:15:31.136Z,39708.56
2022-11-18T06:18:04.333Z,39734.50
2022-11-18T06:20:36.393Z,39722.53
2022-11-18T06:23:04.336Z,39766.41
2022-11-18T06:25:34.640Z,39782.34
2022-11-18T06:28:14.118Z,39792.31
2022-11-18T06:30:41.612Z,39830.22
2022-11-18T06:33:09.319Z,39790.34
2022-11-18T06:35:36.862Z,39818.25
2022-11-18T06:38:09.635Z,39824.22
2022-11-18T06:40:37.767Z,39872.09
2022-11-18T06:43:27.355Z,39927.94
2022-11-18T06:46:18.994Z,39937.91
2022-11-18T06:48:46.612Z,39965.81
2022-11-18T06:51:16.249Z,40005.72
2022-11-18T06:53:44.309Z,40053.56
2022-11-18T06:56:14.280Z,40153.31
2022-11-18T06:58:43.541Z,40225.09
2022-11-18T07:01:16.099Z,40272.97
2022-11-18T07:04:10.124Z,40334.78
2022-11-18T07:06:38.398Z,40332.81
2022-11-18T07:09:07.147Z,40346.75
2022-11-18T07:11:34.849Z,40394.63
2022-11-18T07:14:02.541Z,40478.41
2022-11-18T07:16:30.280Z,40456.47
2022-11-18T07:18:58.028Z,40506.34
2022-11-18T07:21:30.687Z,40554.19
2022-11-18T07:24:06.522Z,40641.97
2022-11-18T07:26:40.511Z,40717.78
2022-11-18T07:29:21.633Z,40823.50
2022-11-18T07:31:52.859Z,41013.00
2022-11-18T07:34:22.819Z,41068.88
2022-11-18T07:37:03.854Z,41270.38
2022-11-18T07:39:33.296Z,41467.88
2022-11-18T07:42:03.621Z,41447.94
2022-11-18T07:44:32.140Z,41727.28
2022-11-18T07:47:00.088Z,41882.91
2022-11-18T07:49:27.742Z,42032.56
2022-11-18T07:51:55.835Z,42246.09
2022-11-18T07:54:23.318Z,42393.78
2022-11-18T07:57:40.505Z,42415.75
2022-11-18T08:00:08.979Z,43288.00
2022-11-18T08:02:40.568Z,43775.16
2022-11-18T08:05:12.181Z,44248.38
2022-11-18T08:07:47.906Z,44499.97
2022-11-18T08:10:22.006Z,44286.31
2022-11-18T08:13:01.225Z,44386.16
2022-11-18T08:15:31.836Z,44278.31
2022-11-18T08:18:12.394Z,44382.16
2022-11-18T08:20:55.487Z,44561.88
2022-11-18T08:23:55.515Z,44951.34
2022-11-18T08:26:23.517Z,45530.59
2022-11-18T08:28:51.450Z,45680.41
2022-11-18T08:31:21.201Z,44953.34
2022-11-18T08:34:09.089Z,45139.09
2022-11-18T08:37:49.039Z,44408.13
2022-11-18T08:40:28.866Z,43797.09
2022-11-18T08:42:57.638Z,43825.06
2022-11-18T08:45:34.799Z,43872.97
2022-11-18T08:48:04.841Z,44244.38
2022-11-18T08:50:37.506Z,44621.81
2022-11-18T08:53:05.440Z,44797.56
2022-11-18T08:55:33.447Z,44276.31
2022-11-18T08:58:06.151Z,45990.09
2022-11-18T09:00:38.802Z,45414.75
2022-11-18T09:03:14.218Z,45450.69
2022-11-18T09:05:47.193Z,45674.44
2022-11-18T09:08:18.000Z,46161.91
2022-11-18T09:10:47.236Z,46663.44
2022-11-18T09:13:44.749Z,40362.72
2022-11-18T09:16:41.153Z,39812.28
2022-11-18T09:19:45.188Z,39915.97
2022-11-18T09:22:27.150Z,40179.22
2022-11-18T09:25:06.629Z,40412.59
2022-11-18T09:27:35.434Z,40711.78
2022-11-18T09:30:05.102Z,41080.84
2022-11-18T09:32:43.976Z,41394.06
2022-11-18T09:35:28.510Z,41577.63
2022-11-18T09:41:40.987Z,42393.78
2022-11-18T09:44:26.338Z,40308.88
2022-11-18T09:46:59.780Z,39900.00
2022-11-18T09:49:39.517Z,39846.16
2022-11-18T09:52:31.296Z,39931.94
2022-11-18T09:55:14.190Z,40053.56
2022-11-18T09:57:47.174Z,40983.09
2022-11-18T10:00:21.823Z,44144.53
2022-11-18T10:03:31.065Z,43994.78
2022-11-18T10:06:25.268Z,43886.94
2022-11-18T10:09:26.253Z,43136.28
2022-11-18T10:12:22.202Z,41721.28
2022-11-18T10:15:28.071Z,41230.47
2022-11-18T10:17:59.926Z,40893.31
2022-11-18T10:20:54.212Z,40659.91
2022-11-18T10:23:40.003Z,40606.06
2022-11-18T10:30:23.170Z,40500.34
2022-11-18T10:32:56.555Z,40316.84
2022-11-18T10:35:36.598Z,40111.41
2022-11-18T10:38:21.664Z,40129.38
2022-11-18T10:41:08.102Z,40187.19
2022-11-18T10:43:58.628Z,40181.22
2022-11-18T10:46:35.936Z,40490.38
2022-11-18T10:49:38.617Z,40452.47
2022-11-18T10:52:14.956Z,40344.78
2022-11-18T10:54:43.412Z,40350.75
2022-11-18T10:57:23.766Z,40426.53
2022-11-18T10:59:52.597Z,40434.53
2022-11-18T11:02:40.366Z,40643.97
2022-11-18T11:05:46.601Z,40464.44
2022-11-18T11:08:38.178Z,40398.63
2022-11-18T11:11:05.611Z,40388.66
2022-11-18T11:13:43.328Z,42052.53
2022-11-18T11:19:12.303Z,42469.63
2022-11-18T11:22:46.807Z,43355.88
2022-11-18T11:29:45.651Z,44645.75
2022-11-18T11:32:56.783Z,43709.25
2022-11-18T11:35:50.264Z,42491.59
2022-11-18T11:38:36.710Z,41817.06
2022-11-18T11:41:40.452Z,41799.09
2022-11-18T11:44:51.180Z,41402.03
2022-11-18T11:48:22.772Z,41248.41
2022-11-18T11:51:05.332Z,40877.34
2022-11-18T11:54:13.496Z,40707.78
2022-11-18T11:56:49.464Z,40639.97
2022-11-18T11:59:54.104Z,40528.28
2022-11-18T12:02:45.703Z,40414.59
2022-11-18T12:05:20.278Z,40352.75
2022-11-18T12:07:54.115Z,40265.00
2022-11-18T12:10:49.386Z,40239.06
2022-11-18T12:13:46.058Z,40143.31
2022-11-18T12:16:23.606Z,40133.34
2022-11-18T12:23:13.054Z,40059.56
2022-11-18T12:25:46.916Z,40073.53
2022-11-18T12:28:26.521Z,39975.81
2022-11-18T12:31:15.667Z,39927.94
2022-11-18T12:33:57.632Z,39965.81
2022-11-18T12:36:32.792Z,39931.94
2022-11-18T12:39:25.632Z,39943.88
2022-11-18T12:42:21.182Z,39957.84
2022-11-18T12:44:51.348Z,39935.91
2022-11-18T12:47:40.974Z,39959.84
2022-11-18T12:50:14.273Z,39989.75
2022-11-18T12:52:41.446Z,40009.69
2022-11-18T12:55:31.950Z,40015.69
2022-11-18T12:58:01.399Z,39981.78
2022-11-18T13:00:52.496Z,39953.88
2022-11-18T13:03:25.424Z,39959.84
2022-11-18T13:06:01.503Z,39929.94
2022-11-18T13:08:31.442Z,39927.94
2022-11-18T13:11:34.383Z,39902.00
2022-11-18T13:14:22.780Z,39892.03
2022-11-18T13:17:09.043Z,39876.09
2022-11-18T13:19:36.490Z,39898.03
2022-11-18T13:22:22.302Z,39894.03
2022-11-18T13:24:51.758Z,39870.09
2022-11-18T13:27:42.171Z,39902.00
2022-11-18T13:30:14.223Z,39955.84
2022-11-18T13:32:46.295Z,40023.66
2022-11-18T13:35:19.796Z,40055.56
2022-11-18T13:37:56.843Z,40115.41
2022-11-18T13:40:26.300Z,40139.34
2022-11-18T13:42:53.579Z,40143.31
2022-11-18T13:45:26.184Z,40127.38
2022-11-18T13:48:01.399Z,40091.47
2022-11-18T13:50:37.678Z,40101.44
2022-11-18T13:53:23.550Z,40103.44
2022-11-18T13:55:59.250Z,40047.59
2022-11-18T13:59:02.567Z,40081.50
2022-11-18T14:01:33.293Z,40111.41
2022-11-18T14:04:20.415Z,40033.63
2022-11-18T14:06:48.162Z,40023.66
2022-11-18T14:09:24.018Z,39965.81
2022-11-18T14:12:09.598Z,39977.78
2022-11-18T14:14:40.407Z,40039.63
2022-11-18T14:17:27.159Z,39961.84
2022-11-18T14:19:57.552Z,40005.72
2022-11-18T14:22:33.661Z,39993.75
2022-11-18T14:25:17.025Z,40023.66
2022-11-18T14:27:53.128Z,40025.66
2022-11-18T14:30:42.004Z,39999.72
2022-11-18T14:33:11.255Z,40007.72
2022-11-18T14:35:39.952Z,40031.63
2022-11-18T14:41:05.479Z,39933.91
2022-11-18T14:43:32.802Z,39894.03
2022-11-18T14:46:03.743Z,39911.97
2022-11-18T14:48:32.931Z,39953.88
2022-11-18T14:51:02.908Z,39955.84
2022-11-18T14:53:30.165Z,39929.94
2022-11-18T14:56:02.209Z,39910.00
2022-11-18T14:58:29.387Z,39959.84
2022-11-18T15:01:01.405Z,39985.78
2022-11-18T15:03:29.501Z,40003.72
2022-11-18T15:05:56.716Z,40053.56
2022-11-18T15:08:23.890Z,40185.22
2022-11-18T15:10:51.053Z,40296.91
2022-11-18T15:13:18.366Z,40446.50
2022-11-18T15:15:45.558Z,40494.38
2022-11-18T15:18:12.804Z,40600.09
2022-11-18T15:20:40.023Z,40663.91
2022-11-18T15:23:07.208Z,40755.66
2022-11-18T15:25:34.375Z,40929.22
2022-11-18T15:28:01.731Z,41015.00
2022-11-18T15:30:29.147Z,41074.84
2022-11-18T15:33:01.215Z,41178.59
2022-11-18T15:35:33.549Z,41254.41
2022-11-18T15:38:01.127Z,41406.03
2022-11-18T15:40:28.708Z,41621.53
2022-11-18T15:42:56.014Z,41809.09
2022-11-18T15:45:24.705Z,43807.09
2022-11-18T15:47:52.202Z,42996.56
2022-11-18T15:50:19.307Z,42537.50
2022-11-18T15:52:46.544Z,42319.94
2022-11-18T15:55:16.080Z,42595.38
2022-11-18T15:57:47.333Z,42938.69
2022-11-18T16:00:15.140Z,42914.72
2022-11-18T16:02:45.086Z,43122.31
2022-11-18T16:05:12.628Z,43585.47
2022-11-18T16:07:41.322Z,41968.72
2022-11-18T16:10:28.503Z,40225.09
2022-11-18T16:12:58.168Z,39979.78
2022-11-18T16:15:48.337Z,39919.97
2022-11-18T16:18:17.806Z,39854.16
2022-11-18T16:20:45.196Z,39792.31
2022-11-18T16:23:12.554Z,39786.34
2022-11-18T16:25:46.560Z,39852.16
2022-11-18T16:28:13.981Z,39820.25
2022-11-18T16:30:59.911Z,39900.00
2022-11-18T16:33:29.266Z,39846.16
2022-11-18T16:35:56.754Z,39842.19
2022-11-18T16:38:24.450Z,39876.09
2022-11-18T16:40:56.828Z,39864.13
2022-11-18T16:43:24.754Z,39724.53
2022-11-18T16:45:57.520Z,39794.31
2022-11-18T16:48:24.678Z,39832.22
2022-11-18T16:51:07.558Z,39874.09
2022-11-18T16:53:34.825Z,39919.97
2022-11-18T16:56:05.007Z,39933.91
2022-11-18T16:58:32.552Z,40023.66
2022-11-18T17:01:18.657Z,39995.75
2022-11-18T17:03:47.048Z,40029.66
2022-11-18T17:06:14.265Z,40019.69
2022-11-18T17:08:41.471Z,40039.63
2022-11-18T17:11:12.910Z,40041.63
2022-11-18T17:13:45.312Z,39957.84
2022-11-18T17:16:20.129Z,39858.13
2022-11-18T17:18:48.054Z,39830.22
2022-11-18T17:21:17.793Z,39900.00
2022-11-18T17:23:46.618Z,40009.69
2022-11-18T17:26:16.637Z,40771.63
2022-11-18T17:28:46.862Z,41204.53
2022-11-18T17:31:19.459Z,40657.94
2022-11-18T17:33:54.650Z,40608.06
2022-11-18T17:36:32.390Z,40538.25
2022-11-18T17:39:09.062Z,40831.47
2022-11-18T17:42:02.327Z,41068.88
2022-11-18T17:44:29.952Z,41294.31
2022-11-18T17:46:57.244Z,41453.91
2022-11-18T17:49:25.376Z,41677.38
2022-11-18T17:51:52.850Z,41731.25
2022-11-18T17:54:21.443Z,41984.69
2022-11-18T17:56:52.229Z,42182.25
2022-11-18T17:59:27.803Z,42052.53
2022-11-18T18:02:07.043Z,42088.47
2022-11-18T18:04:55.782Z,42128.38
2022-11-18T18:07:43.936Z,42120.38
2022-11-18T18:10:11.625Z,42132.34
2022-11-18T18:12:57.902Z,42345.91
2022-11-18T18:15:25.311Z,42471.63
2022-11-18T18:17:52.697Z,42391.78
2022-11-18T18:20:25.248Z,42220.16
2022-11-18T18:23:09.676Z,42435.69
2022-11-18T18:25:44.275Z,42501.56
2022-11-18T18:28:14.565Z,42675.22
2022-11-18T18:30:45.723Z,42605.34
2022-11-18T18:33:16.983Z,42553.47
2022-11-18T18:35:46.658Z,42547.47
2022-11-18T18:38:14.038Z,42663.22
2022-11-18T18:40:41.373Z,42735.09
2022-11-18T18:43:08.917Z,42798.97
2022-11-18T18:45:54.753Z,42617.31
2022-11-18T18:48:24.404Z,42621.31
2022-11-18T18:50:51.790Z,42439.69
2022-11-18T18:53:19.172Z,42383.81
2022-11-18T18:55:46.774Z,42463.66
2022-11-18T18:58:14.048Z,42343.91
2022-11-18T19:00:41.283Z,42407.75
2022-11-18T19:03:08.895Z,42303.97
2022-11-18T19:06:03.699Z,42104.41
2022-11-18T19:08:23.515Z,41920.84
2022-11-18T19:10:53.205Z,41910.84
2022-11-18T19:13:20.535Z,41886.91
2022-11-18T19:15:48.022Z,41886.91
2022-11-18T19:18:17.813Z,41815.06
2022-11-18T19:20:45.097Z,41751.22
2022-11-18T19:23:12.467Z,41757.22
2022-11-18T19:25:39.908Z,41747.22
2022-11-18T19:28:08.217Z,42022.59
2022-11-18T19:30:38.045Z,42088.47
2022-11-18T19:33:05.585Z,41922.81
2022-11-18T19:35:32.964Z,41563.66
2022-11-18T19:38:00.197Z,41535.72
2022-11-18T19:40:32.392Z,41519.75
2022-11-18T19:42:59.774Z,41573.63
2022-11-18T19:45:29.519Z,41581.63
2022-11-18T19:47:58.691Z,41388.06
2022-11-18T19:50:25.868Z,41326.22
2022-11-18T19:52:53.117Z,41266.38
2022-11-18T19:55:23.236Z,41178.59
2022-11-18T19:57:50.447Z,41038.94
2022-11-18T20:00:18.562Z,41042.94
2022-11-18T20:02:53.820Z,41094.81
2022-11-18T20:05:44.624Z,41046.94
2022-11-18T20:08:14.269Z,40997.06
2022-11-18T20:10:47.695Z,40921.25
2022-11-18T20:13:17.126Z,40899.31
2022-11-18T20:15:44.870Z,40879.34
2022-11-18T20:18:12.119Z,40909.28
2022-11-18T20:20:46.553Z,40807.53
2022-11-18T20:23:14.015Z,40795.56
2022-11-18T20:25:41.306Z,40727.75
2022-11-18T20:28:13.297Z,40711.78
2022-11-18T20:30:41.036Z,40616.03
2022-11-18T20:33:08.275Z,40645.97
2022-11-18T20:35:35.807Z,40657.94
2022-11-18T20:38:05.616Z,40628.00
2022-11-18T20:40:32.915Z,40632.00
2022-11-18T20:43:12.697Z,40628.00
2022-11-18T20:45:45.618Z,40542.22
2022-11-18T20:48:14.213Z,40398.63
2022-11-18T20:50:46.651Z,40384.66
2022-11-18T20:53:14.952Z,40342.78
2022-11-18T20:55:42.640Z,40326.81
2022-11-18T20:58:09.912Z,40402.63
2022-11-18T21:00:37.295Z,40356.75
2022-11-18T21:03:04.791Z,40394.63
2022-11-18T21:08:16.614Z,40284.94
2022-11-18T21:10:43.933Z,40203.16
2022-11-18T21:13:29.833Z,40270.97
2022-11-18T21:15:57.332Z,40167.25
2022-11-18T21:18:29.490Z,40087.47
2022-11-18T21:21:16.548Z,40133.34
2022-11-18T21:23:44.126Z,40125.38
2022-11-18T21:26:13.365Z,40083.50
2022-11-18T21:28:41.138Z,40091.47
2022-11-18T21:31:09.309Z,40121.38
2022-11-18T21:33:36.606Z,40073.53
2022-11-18T21:36:05.958Z,40059.56
2022-11-18T21:38:33.266Z,39995.75
2022-11-18T21:41:04.797Z,39923.94
2022-11-18T21:44:04.071Z,39945.88
2022-11-18T21:46:24.222Z,39846.16
2022-11-18T21:48:55.681Z,39840.19
2022-11-18T21:51:26.096Z,39794.31
2022-11-18T21:53:53.298Z,39802.28
2022-11-18T21:56:23.681Z,39782.34
2022-11-18T21:58:52.207Z,39724.53
2022-11-18T22:01:23.504Z,39746.47
2022-11-18T22:03:55.556Z,39746.47
2022-11-18T22:06:25.224Z,39728.50
2022-11-18T22:08:56.844Z,39732.50
2022-11-18T22:11:25.951Z,39722.53
2022-11-18T22:13:53.629Z,39644.75
2022-11-18T22:16:22.761Z,39602.88
2022-11-18T22:18:56.650Z,39576.97
2022-11-18T22:21:27.558Z,39640.78
2022-11-18T22:24:01.533Z,39622.81
2022-11-18T22:26:29.121Z,39626.81
2022-11-18T22:28:58.448Z,39598.91
2022-11-18T22:31:27.722Z,39570.97
2022-11-18T22:33:56.646Z,39574.97
2022-11-18T22:36:25.466Z,39570.97
2022-11-18T22:38:53.440Z,39561.00
2022-11-18T22:41:45.882Z,39561.00
2022-11-18T22:44:15.035Z,39559.00
2022-11-18T22:46:44.610Z,39531.09
2022-11-18T22:49:14.986Z,39503.19
2022-11-18T22:51:42.131Z,39503.19
2022-11-18T22:54:37.300Z,39507.16
2022-11-18T22:56:56.757Z,39481.25
2022-11-18T22:59:26.296Z,39429.41
2022-11-18T23:01:53.525Z,39411.44
2022-11-18T23:04:21.118Z,39441.38
2022-11-18T23:06:49.123Z,39497.19
2022-11-18T23:09:17.237Z,39469.28
2022-11-18T23:12:03.366Z,39517.13
2022-11-18T23:14:32.866Z,39471.28
2022-11-18T23:17:00.035Z,39477.25
2022-11-18T23:19:29.676Z,39499.19
2022-11-18T23:21:56.951Z,39499.19
2022-11-18T23:24:24.153Z,39487.22
2022-11-18T23:26:51.364Z,39429.41
2022-11-18T23:29:19.040Z,39437.38
2022-11-18T23:31:46.540Z,39419.44
2022-11-18T23:34:15.466Z,39451.34
2022-11-18T23:36:42.735Z,39427.41
2022-11-18T23:39:10.051Z,39399.50
2022-11-18T23:41:37.850Z,39387.53
2022-11-18T23:44:07.576Z,39451.34
2022-11-18T23:46:35.166Z,39511.16
2022-11-18T23:49:02.389Z,39511.16
2022-11-18T23:51:29.719Z,39475.25
2022-11-18T23:53:57.888Z,39479.25
2022-11-18T23:56:31.762Z,39459.31
2022-11-18T23:59:02.262Z,39455.31
